Time;durP1;ratioP1;P1;durP2;ratioP2;P2;SDS_P1;SDS_P2;PMS_P1;PMS_P2;Temp;Humidity;BMP_temperature;BMP_pressure;BME280_temperature;BME280_humidity;BME280_pressure;Samples;Min_cycle;Max_cycle;Signal;HPM_P1;HPM_P2
2020/12/23 00:01:36;;;;;;;1999.90;999.90;;;;;;;-8.33;86.74;102164.81;1695364;83;21432;-61
2020/12/23 00:04:04;;;;;;;1999.90;999.90;;;;;;;-8.32;86.71;102166.48;1711724;83;21172;-68
2020/12/23 00:06:35;;;;;;;1999.90;999.90;;;;;;;-8.29;86.70;102158.13;1705122;83;21092;-62
2020/12/23 00:09:04;;;;;;;1999.90;999.90;;;;;;;-8.27;86.56;102159.33;1702146;83;21579;-61
2020/12/23 00:11:33;;;;;;;1999.90;999.90;;;;;;;-8.29;86.54;102157.28;1704210;83;20949;-61
2020/12/23 00:14:01;;;;;;;1999.90;999.90;;;;;;;-8.28;86.55;102153.11;1698299;82;20986;-62
2020/12/23 00:16:28;;;;;;;1999.90;999.90;;;;;;;-8.27;86.57;102153.45;1702737;83;21033;-62
2020/12/23 00:18:56;;;;;;;1999.90;999.90;;;;;;;-8.26;86.50;102151.12;1711527;83;20953;-61
2020/12/23 00:21:24;;;;;;;1999.90;999.90;;;;;;;-8.22;86.51;102152.52;1704452;82;21366;-64
2020/12/23 00:23:52;;;;;;;1999.90;999.90;;;;;;;-8.20;86.44;102150.53;1703645;82;21044;-64
2020/12/23 00:26:20;;;;;;;1999.90;999.90;;;;;;;-8.18;86.36;102155.26;1697152;83;20997;-65
2020/12/23 00:28:47;;;;;;;1999.90;999.90;;;;;;;-8.14;86.35;102152.63;1708800;82;21000;-65
2020/12/23 00:31:16;;;;;;;1999.90;999.90;;;;;;;-8.12;86.25;102158.70;1705056;83;21567;-65
2020/12/23 00:33:44;;;;;;;1999.90;999.90;;;;;;;-8.14;86.16;102159.34;1710572;83;21354;-63
2020/12/23 00:36:13;;;;;;;1999.90;999.90;;;;;;;-8.12;86.22;102153.82;1703405;83;21107;-63
2020/12/23 00:38:42;;;;;;;1999.90;999.90;;;;;;;-8.10;86.23;102152.33;1690947;84;21018;-66
2020/12/23 00:41:10;;;;;;;1999.90;999.90;;;;;;;-8.09;86.30;102150.84;1684969;84;21124;-66
2020/12/23 00:43:38;;;;;;;1999.90;999.90;;;;;;;-8.08;86.20;102153.03;1685698;84;21136;-64
2020/12/23 00:46:12;;;;;;;1999.90;999.90;;;;;;;-8.07;86.23;102147.51;1690986;84;22237;-64
2020/12/23 00:48:40;;;;;;;1999.90;999.90;;;;;;;-8.04;86.05;102143.68;1687362;84;20990;-66
2020/12/23 00:51:14;;;;;;;1999.90;999.90;;;;;;;-8.09;85.89;102141.94;1691279;82;21025;-66
2020/12/23 00:53:42;;;;;;;1999.90;999.90;;;;;;;-8.16;85.92;102126.41;1695584;84;21283;-65
2020/12/23 00:56:16;;;;;;;1999.90;999.90;;;;;;;-8.20;86.08;102124.17;1679452;84;21662;-65
2020/12/23 00:58:44;;;;;;;1999.90;999.90;;;;;;;-8.21;86.22;102122.47;1687548;84;22216;-66
2020/12/23 01:01:11;;;;;;;1999.90;999.90;;;;;;;-8.19;86.37;102123.17;1687810;84;21100;-66
2020/12/23 01:03:41;;;;;;;1999.90;999.90;;;;;;;-8.13;86.45;102119.39;1693041;84;21561;-65
2020/12/23 01:06:09;;;;;;;1999.90;999.90;;;;;;;-8.08;86.46;102118.95;1692441;82;21203;-66
2020/12/23 01:08:37;;;;;;;1999.90;999.90;;;;;;;-8.03;86.45;102116.66;1690011;84;20974;-64
2020/12/23 01:11:06;;;;;;;1999.90;999.90;;;;;;;-8.00;86.36;102111.48;1692489;84;21335;-65
2020/12/23 01:13:34;;;;;;;1999.90;999.90;;;;;;;-7.98;86.27;102106.31;1697140;84;21576;-66
2020/12/23 01:16:02;;;;;;;1999.90;999.90;;;;;;;-7.94;86.24;102093.42;1694454;84;21196;-64
2020/12/23 01:18:30;;;;;;;1999.90;999.90;;;;;;;-7.94;86.07;102100.14;1694041;84;21127;-64
2020/12/23 01:20:57;;;;;;;1999.90;999.90;;;;;;;-7.98;85.95;102101.44;1698035;84;20994;-63
2020/12/23 01:23:25;;;;;;;1999.90;999.90;;;;;;;-8.00;85.93;102097.55;1694749;83;21207;-65
2020/12/23 01:25:54;;;;;;;1999.90;999.90;;;;;;;-7.98;85.99;102102.28;1688625;82;21065;-66
2020/12/23 01:28:21;;;;;;;1999.90;999.90;;;;;;;-7.96;85.94;102102.13;1690794;83;21038;-63
2020/12/23 01:30:49;;;;;;;1999.90;999.90;;;;;;;-7.96;85.96;102102.98;1699825;83;20990;-65
2020/12/23 01:33:17;;;;;;;1999.90;999.90;;;;;;;-7.96;85.92;102103.47;1693155;82;20993;-63
2020/12/23 01:35:45;;;;;;;1999.90;999.90;;;;;;;-7.95;86.03;102099.79;1691052;82;21376;-64
2020/12/23 01:38:13;;;;;;;1999.90;999.90;;;;;;;-7.94;86.14;102098.30;1699119;83;20999;-64
2020/12/23 01:40:40;;;;;;;1999.90;999.90;;;;;;;-7.91;86.09;102102.52;1698581;83;21119;-65
2020/12/23 01:43:09;;;;;;;1999.90;999.90;;;;;;;-7.89;86.05;102104.06;1696134;83;21546;-65
2020/12/23 01:45:37;;;;;;;1999.90;999.90;;;;;;;-7.89;85.94;102091.97;1698702;83;20993;-64
2020/12/23 01:48:16;;;;;;;1999.90;999.90;;;;;;;-7.89;85.94;102093.81;1704828;83;21208;-64
2020/12/23 01:50:44;;;;;;;1999.90;999.90;;;;;;;-7.88;85.95;102093.66;1696166;83;20993;-64
2020/12/23 01:53:12;;;;;;;1999.90;999.90;;;;;;;-7.88;85.86;102092.31;1698422;83;21112;-64
2020/12/23 01:55:40;;;;;;;1999.90;999.90;;;;;;;-7.91;85.80;102080.53;1667880;83;21024;-63
2020/12/23 01:58:08;;;;;;;1999.90;999.90;;;;;;;-7.90;85.78;102080.03;1663672;83;21130;-65
2020/12/23 02:00:36;;;;;;;1999.90;999.90;;;;;;;-7.92;85.70;102086.05;1655902;83;22257;-64
2020/12/23 02:03:04;;;;;;;1999.90;999.90;;;;;;;-7.96;85.78;102072.57;1706352;83;20985;-64
2020/12/23 02:05:32;;;;;;;1999.90;999.90;;;;;;;-7.95;85.96;102071.58;1708690;82;21008;-64
2020/12/23 02:08:00;;;;;;;1999.90;999.90;;;;;;;-7.95;85.92;102072.92;1704939;83;20969;-63
2020/12/23 02:10:28;;;;;;;1999.90;999.90;;;;;;;-7.96;86.06;102061.83;1704619;83;21025;-64
2020/12/23 02:12:56;;;;;;;1999.90;999.90;;;;;;;-7.93;86.11;102056.98;1704455;83;21921;-62
2020/12/23 02:15:24;;;;;;;1999.90;999.90;;;;;;;-7.91;86.14;102055.00;1706110;83;21124;-65
2020/12/23 02:17:52;;;;;;;1999.90;999.90;;;;;;;-7.88;86.09;102053.84;1702599;83;21795;-62
2020/12/23 02:20:19;;;;;;;1999.90;999.90;;;;;;;-7.86;86.12;102055.89;1701561;83;21099;-62
2020/12/23 02:22:47;;;;;;;1999.90;999.90;;;;;;;-7.89;85.91;102057.53;1699693;83;21547;-65
2020/12/23 02:25:15;;;;;;;1999.90;999.90;;;;;;;-7.94;85.87;102049.92;1710751;82;21379;-66
2020/12/23 02:27:43;;;;;;;1999.90;999.90;;;;;;;-7.93;85.90;102041.37;1694425;83;21554;-65
2020/12/23 02:30:11;;;;;;;1999.90;999.90;;;;;;;-7.89;85.98;102044.09;1708812;83;21583;-62
2020/12/23 02:32:39;;;;;;;1999.90;999.90;;;;;;;-7.89;85.97;102048.97;1700056;83;21139;-67
2020/12/23 02:35:08;;;;;;;1999.90;999.90;;;;;;;-7.85;86.12;102040.95;1711525;83;21044;-63
2020/12/23 02:37:37;;;;;;;1999.90;999.90;;;;;;;-7.83;85.97;102048.36;1695939;82;22241;-62
2020/12/23 02:40:05;;;;;;;1999.90;999.90;;;;;;;-7.89;85.80;102046.28;1689094;84;21032;-63
2020/12/23 02:42:33;;;;;;;1999.90;999.90;;;;;;;-7.93;85.87;102051.62;1687245;84;21119;-62
2020/12/23 02:45:00;;;;;;;1999.90;999.90;;;;;;;-7.99;85.87;102054.06;1697954;84;21397;-62
2020/12/23 02:47:28;;;;;;;1999.90;999.90;;;;;;;-8.04;86.06;102052.33;1694280;84;21103;-66
2020/12/23 02:49:56;;;;;;;1999.90;999.90;;;;;;;-8.03;86.25;102044.12;1701966;82;21366;-66
2020/12/23 02:52:24;;;;;;;1999.90;999.90;;;;;;;-7.99;86.28;102045.50;1685495;84;21172;-66
2020/12/23 02:54:52;;;;;;;1999.90;999.90;;;;;;;-7.99;86.08;102045.50;1689153;84;21108;-63
2020/12/23 02:57:19;;;;;;;1999.90;999.90;;;;;;;-7.94;86.14;102036.48;1686042;83;21112;-65
2020/12/23 02:59:47;;;;;;;1999.90;999.90;;;;;;;-7.88;86.14;102035.88;1691141;84;21136;-64
2020/12/23 03:02:15;;;;;;;1999.90;999.90;;;;;;;-7.87;86.03;102035.38;1690755;84;22218;-66
2020/12/23 03:04:44;;;;;;;1999.90;999.90;;;;;;;-7.85;86.00;102033.39;1683804;84;21244;-66
2020/12/23 03:07:12;;;;;;;1999.90;999.90;;;;;;;-7.85;85.88;102037.42;1688450;83;21524;-64
2020/12/23 03:09:40;;;;;;;1999.90;999.90;;;;;;;-7.89;85.76;102033.34;1700500;82;21136;-67
2020/12/23 03:12:08;;;;;;;1999.90;999.90;;;;;;;-7.91;85.84;102032.16;1690078;83;21612;-67
2020/12/23 03:14:36;;;;;;;1999.90;999.90;;;;;;;-7.92;85.75;102025.09;1699427;84;21199;-64
2020/12/23 03:17:04;;;;;;;1999.90;999.90;;;;;;;-7.95;85.82;102017.83;1680772;84;21136;-65
2020/12/23 03:19:32;;;;;;;1999.90;999.90;;;;;;;-7.99;86.00;102017.30;1697516;84;21634;-66
2020/12/23 03:22:00;;;;;;;1999.90;999.90;;;;;;;-8.01;86.13;102010.38;1683877;84;21192;-66
2020/12/23 03:24:27;;;;;;;1999.90;999.90;;;;;;;-8.01;86.29;102014.41;1686190;84;21219;-64
2020/12/23 03:26:55;;;;;;;1999.90;999.90;;;;;;;-8.01;86.35;102006.35;1697305;82;21373;-64
2020/12/23 03:29:23;;;;;;;1999.90;999.90;;;;;;;-8.02;86.31;102009.53;1697482;82;21017;-66
2020/12/23 03:31:50;;;;;;;1999.90;999.90;;;;;;;-8.02;86.39;102005.50;1688456;82;21183;-65
2020/12/23 03:34:18;;;;;;;1999.90;999.90;;;;;;;-7.99;86.45;102013.77;1690202;82;21179;-66
2020/12/23 03:36:46;;;;;;;1999.90;999.90;;;;;;;-7.99;86.46;102009.23;1697071;84;21689;-68
2020/12/23 03:41:55;;;;;;;1999.90;999.90;;;;;;;-7.85;86.50;101997.11;1834658;76;28835;-61
2020/12/23 03:44:23;;;;;;;1999.90;999.90;;;;;;;-7.84;86.42;102008.20;1798191;78;20965;-65
2020/12/23 03:46:51;;;;;;;1999.90;999.90;;;;;;;-7.83;86.30;101999.14;1799749;79;21372;-69
2020/12/23 03:49:19;;;;;;;1999.90;999.90;;;;;;;-7.87;86.01;102006.66;1791098;79;21009;-67
2020/12/23 03:51:46;;;;;;;1999.90;999.90;;;;;;;-7.89;86.02;102001.95;1800487;79;21807;-67
2020/12/23 03:54:14;;;;;;;1999.90;999.90;;;;;;;-7.90;86.03;102013.69;1797812;78;20961;-67
2020/12/23 03:56:42;;;;;;;1999.90;999.90;;;;;;;-7.91;85.94;102012.50;1789252;79;21028;-63
2020/12/23 03:59:10;;;;;;;1999.90;999.90;;;;;;;-7.90;86.06;102000.75;1786032;79;21360;-63
2020/12/23 04:01:38;;;;;;;1999.90;999.90;;;;;;;-7.89;86.05;102012.69;1786460;79;20968;-66
2020/12/23 04:04:05;;;;;;;1999.90;999.90;;;;;;;-7.89;85.98;102007.81;1785559;79;21554;-66
2020/12/23 04:06:33;;;;;;;1999.90;999.90;;;;;;;-7.91;85.88;102008.47;1786353;79;20984;-66
2020/12/23 04:09:01;;;;;;;1999.90;999.90;;;;;;;-7.93;85.94;102009.97;1783522;79;21099;-63
2020/12/23 04:11:29;;;;;;;1999.90;999.90;;;;;;;-7.94;85.82;102012.80;1788486;79;21426;-66
2020/12/23 04:13:56;;;;;;;1999.90;999.90;;;;;;;-7.97;85.85;102005.89;1783710;79;21526;-67
2020/12/23 04:16:24;;;;;;;1999.90;999.90;;;;;;;-7.98;85.87;102012.27;1796219;78;20953;-63
2020/12/23 04:18:52;;;;;;;1999.90;999.90;;;;;;;-8.00;85.94;102002.16;1755048;80;21060;-66
2020/12/23 04:21:20;;;;;;;1999.90;999.90;;;;;;;-7.98;85.86;102008.73;1796813;79;21544;-67
2020/12/23 04:23:47;;;;;;;1999.90;999.90;;;;;;;-7.99;85.87;102009.73;1790297;79;21183;-67
2020/12/23 04:26:15;;;;;;;1999.90;999.90;;;;;;;-8.01;85.88;102009.03;1795780;79;20953;-64
2020/12/23 04:28:43;;;;;;;1999.90;999.90;;;;;;;-7.99;86.06;102009.73;1805301;79;21525;-65
2020/12/23 04:31:10;;;;;;;1999.90;999.90;;;;;;;-7.98;85.93;102008.23;1790878;78;20945;-66
2020/12/23 04:33:39;;;;;;;1999.90;999.90;;;;;;;-7.96;85.93;102014.30;1806803;79;21083;-64
2020/12/23 04:36:06;;;;;;;1999.90;999.90;;;;;;;-7.94;85.82;102023.55;1785596;78;21173;-66
2020/12/23 04:38:34;;;;;;;1999.90;999.90;;;;;;;-7.97;85.71;102018.48;1785194;79;21561;-66
2020/12/23 04:41:02;;;;;;;1999.90;999.90;;;;;;;-7.99;85.93;102014.60;1747429;80;21094;-66
2020/12/23 04:43:30;;;;;;;1999.90;999.90;;;;;;;-7.98;85.94;102015.45;1713566;82;21111;-66
2020/12/23 04:47:02;;;;;;;1999.90;999.90;;;;;;;-7.97;86.05;102014.45;1786617;79;20953;-63
2020/12/23 04:49:36;;;;;;;1999.90;999.90;;;;;;;-7.95;86.04;102014.65;1789506;79;21372;-65
2020/12/23 04:52:07;;;;;;;1999.90;999.90;;;;;;;-7.98;85.98;102016.80;1800513;79;21500;-62
2020/12/23 04:54:35;;;;;;;1999.90;999.90;;;;;;;-7.99;86.00;102015.95;1790825;79;20925;-63
2020/12/23 04:57:03;;;;;;;1999.90;999.90;;;;;;;-8.00;86.13;102012.07;1762742;80;21122;-65
2020/12/23 04:59:31;;;;;;;1999.90;999.90;;;;;;;-8.01;86.16;102015.75;1745032;81;21562;-62
2020/12/23 05:02:00;;;;;;;1999.90;999.90;;;;;;;-8.05;86.27;102017.90;1786821;79;21558;-62
2020/12/23 05:04:27;;;;;;;1999.90;999.90;;;;;;;-8.06;86.32;102019.39;1784936;79;21008;-65
2020/12/23 05:07:04;;;;;;;1999.90;999.90;;;;;;;-8.05;86.35;102018.39;1798059;79;21018;-62
2020/12/23 05:09:33;;;;;;;1999.90;999.90;;;;;;;-8.04;86.47;102018.24;1783802;79;20941;-62
2020/12/23 05:12:00;;;;;;;1999.90;999.90;;;;;;;-8.01;86.54;102020.63;1797663;79;20916;-63
2020/12/23 05:14:28;;;;;;;1999.90;999.90;;;;;;;-8.00;86.54;102014.25;1792785;79;21140;-66
2020/12/23 05:16:56;;;;;;;1999.90;999.90;;;;;;;-7.98;86.50;102024.36;1791862;79;21632;-64
2020/12/23 05:19:24;;;;;;;1999.90;999.90;;;;;;;-7.95;86.37;102020.02;1786237;79;21735;-66
2020/12/23 05:21:52;;;;;;;1999.90;999.90;;;;;;;-7.99;86.41;102012.41;1785639;79;20957;-67
2020/12/23 05:24:20;;;;;;;1999.90;999.90;;;;;;;-8.04;86.55;102014.71;1784643;79;20955;-63
2020/12/23 05:26:47;;;;;;;1999.90;999.90;;;;;;;-8.08;86.77;102012.83;1796603;79;21323;-64
2020/12/23 05:29:15;;;;;;;1999.90;999.90;;;;;;;-8.10;86.94;102012.14;1790741;79;20988;-63
2020/12/23 05:31:43;;;;;;;1999.90;999.90;;;;;;;-8.14;87.05;102018.31;1793754;79;21022;-63
2020/12/23 05:34:11;;;;;;;1999.90;999.90;;;;;;;-8.17;87.26;102005.67;1797557;78;21535;-63
2020/12/23 05:36:40;;;;;;;1999.90;999.90;;;;;;;-8.19;87.54;102004.48;1791705;79;20971;-65
2020/12/23 05:41:49;;;;;;;1999.90;999.90;;;;;;;-8.12;87.61;101993.48;1799917;78;28170;-68
2020/12/23 05:44:20;;;;;;;1999.90;999.90;;;;;;;-8.15;87.65;102005.03;1747152;80;20974;-63
2020/12/23 05:47:23;;;;;;;1999.90;999.90;;;;;;;-8.10;87.67;101998.70;1867177;75;28118;-64
2020/12/23 05:49:52;;;;;;;1999.90;999.90;;;;;;;-8.14;87.77;101995.97;1822707;77;20976;-62
2020/12/23 05:52:21;;;;;;;1999.90;999.90;;;;;;;-8.13;87.91;101994.98;1776475;79;21881;-63
2020/12/23 05:54:53;;;;;;;1999.90;999.90;;;;;;;-8.12;87.97;101994.83;1744203;80;21139;-65
2020/12/23 05:57:20;;;;;;;1999.90;999.90;;;;;;;-8.10;88.10;101994.67;1754371;81;20977;-63
2020/12/23 05:59:48;;;;;;;1999.90;999.90;;;;;;;-8.11;87.97;101994.33;1775302;80;20997;-62
2020/12/23 06:02:16;;;;;;;1999.90;999.90;;;;;;;-8.11;87.99;101997.02;1774732;80;20947;-65
2020/12/23 06:04:44;;;;;;;1999.90;999.90;;;;;;;-8.12;87.97;101994.83;1712220;80;22296;-66
2020/12/23 06:07:11;;;;;;;1999.90;999.90;;;;;;;-8.09;88.04;102004.92;1772447;80;20981;-66
2020/12/23 06:09:49;;;;;;;1999.90;999.90;;;;;;;-8.06;88.14;101993.87;1764544;80;21059;-64
2020/12/23 06:12:21;;;;;;;1999.90;999.90;;;;;;;-8.01;88.14;101991.07;1690812;82;21566;-63
2020/12/23 06:14:57;;;;;;;1999.90;999.90;;;;;;;-7.99;88.12;101999.83;1762512;81;20956;-62
2020/12/23 06:17:26;;;;;;;1999.90;999.90;;;;;;;-8.01;87.91;102004.51;1769722;78;22120;-64
2020/12/23 06:19:56;;;;;;;1999.90;999.90;;;;;;;-7.98;87.87;102007.39;1764668;80;21122;-64
2020/12/23 06:22:26;;;;;;;1999.90;999.90;;;;;;;-7.96;87.73;102008.92;1748498;81;21550;-64
2020/12/23 06:25:00;;;;;;;1999.90;999.90;;;;;;;-7.94;87.75;102010.12;1763458;80;21163;-65
2020/12/23 06:27:24;;;;;;;1999.90;999.90;;;;;;;-7.94;87.63;102007.43;1763387;80;21075;-62
2020/12/23 06:29:52;;;;;;;1999.90;999.90;;;;;;;-7.96;87.76;102006.23;1727101;81;21451;-64
2020/12/23 06:32:23;;;;;;;1999.90;999.90;;;;;;;-7.94;87.79;102010.12;1759202;80;21163;-64
2020/12/23 06:34:59;;;;;;;1999.90;999.90;;;;;;;-7.96;87.69;102014.30;1753439;81;20980;-64
2020/12/23 06:37:33;;;;;;;1999.90;999.90;;;;;;;-7.97;87.77;102015.80;1777076;80;21103;-65
2020/12/23 06:40:10;;;;;;;1999.90;999.90;;;;;;;-7.96;87.93;102018.33;1760920;80;21125;-62
2020/12/23 06:42:48;;;;;;;1999.90;999.90;;;;;;;-7.93;87.83;102015.34;1762580;80;21329;-62
2020/12/23 06:45:15;;;;;;;1999.90;999.90;;;;;;;-7.93;87.76;102020.72;1768248;80;21102;-64
2020/12/23 06:47:44;;;;;;;1999.90;999.90;;;;;;;-7.89;87.86;102022.59;1775084;80;21111;-67
2020/12/23 07:02:21;;;;;;;1999.90;999.90;;;;;;;-7.35;86.14;101996.03;1777481;78;28248;-63
2020/12/23 07:04:49;;;;;;;1999.90;999.90;;;;;;;-7.52;86.56;101992.86;1747178;81;21130;-64
2020/12/23 07:07:38;;;;;;;1999.90;999.90;;;;;;;-7.59;87.13;101992.64;1715124;80;21393;-67
2020/12/23 07:10:17;;;;;;;1999.90;999.90;;;;;;;-7.58;87.48;101990.30;1892087;73;28125;-67
2020/12/23 07:12:56;;;;;;;1999.90;999.90;;;;;;;-7.60;87.75;101994.14;1832937;77;20943;-65
2020/12/23 07:15:31;;;;;;;1999.90;999.90;;;;;;;-7.55;87.94;101998.05;1834391;77;22239;-66
2020/12/23 07:18:07;;;;;;;1999.90;999.90;;;;;;;-7.47;88.09;101998.12;1828360;77;21129;-66
2020/12/23 07:21:00;;;;;;;1999.90;999.90;;;;;;;-7.44;87.74;102002.84;1834594;77;20963;-67
2020/12/23 07:23:33;;;;;;;1999.90;999.90;;;;;;;-7.40;87.77;101993.46;1842776;76;20928;-69
2020/12/23 07:26:04;;;;;;;1999.90;999.90;;;;;;;-7.37;87.70;101995.84;1833324;76;20939;-67
2020/12/23 07:28:40;;;;;;;1999.90;999.90;;;;;;;-7.34;87.73;101992.34;1834342;76;22298;-63
2020/12/23 07:31:09;;;;;;;1999.90;999.90;;;;;;;-7.32;87.57;101993.52;1832720;77;21191;-68
2020/12/23 07:33:38;;;;;;;1999.90;999.90;;;;;;;-7.32;87.62;101990.33;1836421;77;21208;-69
2020/12/23 07:36:06;;;;;;;1999.90;999.90;;;;;;;-7.32;87.63;101994.87;1833290;77;21141;-65
2020/12/23 07:38:40;;;;;;;1999.90;999.90;;;;;;;-7.30;87.77;101993.71;1833480;77;21121;-68
2020/12/23 07:41:12;;;;;;;1999.90;999.90;;;;;;;-7.28;87.74;101982.80;1831989;76;21359;-69
2020/12/23 07:43:41;;;;;;;1999.90;999.90;;;;;;;-7.26;87.79;101985.67;1836322;77;20955;-67
2020/12/23 07:46:09;;;;;;;1999.90;999.90;;;;;;;-7.26;87.73;101976.25;1832949;77;20971;-66
2020/12/23 07:48:37;;;;;;;1999.90;999.90;;;;;;;-7.22;87.80;101976.78;1803291;77;21129;-64
2020/12/23 07:51:05;;;;;;;1999.90;999.90;;;;;;;-7.17;87.88;101975.81;1828860;77;21325;-65
2020/12/23 07:53:32;;;;;;;1999.90;999.90;;;;;;;-7.10;87.98;101977.36;1781621;77;22091;-68
2020/12/23 07:56:07;;;;;;;1999.90;999.90;;;;;;;-7.08;87.81;101962.75;1832234;77;21118;-63
2020/12/23 07:58:35;;;;;;;1999.90;999.90;;;;;;;-7.07;87.72;101964.44;1829157;77;20951;-65
2020/12/23 08:01:07;;;;;;;1999.90;999.90;;;;;;;-7.02;87.81;101964.80;1828856;77;21070;-63
2020/12/23 08:03:35;;;;;;;1999.90;999.90;;;;;;;-7.00;87.83;101962.80;1832508;77;20951;-63
2020/12/23 08:06:10;;;;;;;1999.90;999.90;;;;;;;-6.98;87.67;101957.25;1829194;77;22326;-63
2020/12/23 08:08:46;;;;;;;1999.90;999.90;;;;;;;-6.94;87.54;101947.85;1858141;76;28258;-64
2020/12/23 08:11:15;;;;;;;1999.90;999.90;;;;;;;-6.97;87.49;101955.75;1830490;75;20948;-64
2020/12/23 08:13:43;;;;;;;1999.90;999.90;;;;;;;-6.92;87.58;101956.61;1814388;78;21331;-63
2020/12/23 08:16:14;;;;;;;1999.90;999.90;;;;;;;-6.89;87.40;101954.95;1779869;78;20972;-64
2020/12/23 08:18:42;;;;;;;1999.90;999.90;;;;;;;-6.87;87.44;101953.78;1785224;79;20992;-63
2020/12/23 08:21:15;;;;;;;1999.90;999.90;;;;;;;-6.86;87.37;101951.94;1782415;78;20984;-65
2020/12/23 08:23:46;;;;;;;1999.90;999.90;;;;;;;-6.82;87.40;101946.06;1778861;80;21023;-66
2020/12/23 08:26:14;;;;;;;1999.90;999.90;;;;;;;-6.78;87.21;101946.59;1773912;78;21359;-66
2020/12/23 08:28:43;;;;;;;1999.90;999.90;;;;;;;-6.76;87.28;101940.53;1776276;80;20976;-62
2020/12/23 08:31:17;;;;;;;1999.90;999.90;;;;;;;-6.72;87.35;101944.59;1777304;80;20953;-63
2020/12/23 08:33:45;;;;;;;1999.90;999.90;;;;;;;-6.64;87.38;101931.67;1782958;79;21156;-64
2020/12/23 08:36:13;;;;;;;1999.90;999.90;;;;;;;-6.57;87.28;101928.66;1774282;80;21083;-63
2020/12/23 08:38:41;;;;;;;1999.90;999.90;;;;;;;-6.53;87.20;101922.78;1735265;80;21452;-63
2020/12/23 08:41:14;;;;;;;1999.90;999.90;;;;;;;-6.44;87.17;101917.42;1782680;78;20996;-62
2020/12/23 08:43:49;;;;;;;1999.90;999.90;;;;;;;-6.40;86.84;101922.81;1776215;80;20968;-64
2020/12/23 08:46:24;;;;;;;1999.90;999.90;;;;;;;-6.32;86.82;101916.11;1778153;78;21099;-66
2020/12/23 08:48:53;;;;;;;1999.90;999.90;;;;;;;-6.24;86.97;101904.00;1771520;78;20986;-67
2020/12/23 08:51:23;;;;;;;1999.90;999.90;;;;;;;-6.15;86.77;101903.00;1773781;78;21373;-67
2020/12/23 08:53:54;;;;;;;1999.90;999.90;;;;;;;-6.12;86.15;101901.31;1768304;79;20994;-66
2020/12/23 08:56:28;;;;;;;1999.90;999.90;;;;;;;-6.17;85.85;101903.67;1787889;79;20956;-68
2020/12/23 08:59:05;;;;;;;1999.90;999.90;;;;;;;-6.20;85.80;101898.11;1777609;78;20925;-66
2020/12/23 09:01:35;;;;;;;1999.90;999.90;;;;;;;-6.18;85.99;101900.64;1771316;78;20961;-67
2020/12/23 09:04:08;;;;;;;1999.90;999.90;;;;;;;-6.12;86.16;101895.09;1779892;80;21364;-72
2020/12/23 09:06:42;;;;;;;1999.90;999.90;;;;;;;-6.10;85.94;101895.76;1782004;78;21554;-71
2020/12/23 09:09:18;;;;;;;1999.90;999.90;;;;;;;-6.08;85.94;101893.74;1778863;80;21003;-70
2020/12/23 09:11:53;;;;;;;1999.90;999.90;;;;;;;-5.98;86.21;101889.88;1782068;78;21020;-68
2020/12/23 09:14:34;;;;;;;1999.90;999.90;;;;;;;-5.86;85.77;101889.00;1885562;75;28647;-69
2020/12/23 09:17:10;;;;;;;1999.90;999.90;;;;;;;-5.94;85.20;101887.18;1762266;80;20965;-70
2020/12/23 09:19:53;;;;;;;1999.90;999.90;;;;;;;-5.98;85.33;101891.73;1760038;80;22248;-70
2020/12/23 09:22:37;;;;;;;1999.90;999.90;;;;;;;-6.04;85.18;101882.96;1760420;80;21218;-71
2020/12/23 09:25:29;;;;;;;1999.90;999.90;;;;;;;-6.07;85.50;101877.91;1764020;80;21577;-72
2020/12/23 09:28:09;;;;;;;1999.90;999.90;;;;;;;-6.01;85.88;101878.59;1762264;80;21095;-70
2020/12/23 09:30:55;;;;;;;1999.90;999.90;;;;;;;-5.91;86.06;101871.17;1765568;80;20955;-69
2020/12/23 09:33:23;;;;;;;1999.90;999.90;;;;;;;-5.86;85.83;101870.97;1770154;80;21353;-68
2020/12/23 09:35:52;;;;;;;1999.90;999.90;;;;;;;-5.79;85.96;101868.44;1756944;80;21017;-66
2020/12/23 09:38:27;;;;;;;1999.90;999.90;;;;;;;-5.69;86.12;101866.41;1763322;80;21269;-67
2020/12/23 09:40:56;;;;;;;1999.90;999.90;;;;;;;-5.58;85.35;101863.35;1771471;80;21150;-68
2020/12/23 09:43:32;;;;;;;1999.90;999.90;;;;;;;-5.58;85.35;101863.35;1762253;80;21083;-68
2020/12/23 09:46:04;;;;;;;1999.90;999.90;;;;;;;-5.54;85.37;101862.00;1764827;80;22235;-68
2020/12/23 09:48:32;;;;;;;1999.90;999.90;;;;;;;-5.43;85.41;101857.26;1766203;80;21577;-66
2020/12/23 09:51:00;;;;;;;1999.90;999.90;;;;;;;-5.32;85.33;101862.29;1756718;80;21633;-70
2020/12/23 09:53:28;;;;;;;1999.90;999.90;;;;;;;-5.22;85.00;101864.28;1763481;80;21099;-67
2020/12/23 09:55:55;;;;;;;1999.90;999.90;;;;;;;-5.22;84.36;101859.73;1761208;80;21117;-68
2020/12/23 09:58:23;;;;;;;1999.90;999.90;;;;;;;-5.20;84.45;101867.69;1765720;80;21367;-66
2020/12/23 10:00:52;;;;;;;1999.90;999.90;;;;;;;-5.15;84.59;101865.30;1759861;80;21146;-62
2020/12/23 10:03:19;;;;;;;1999.90;999.90;;;;;;;-5.10;84.52;101852.63;1764241;80;21669;-65
2020/12/23 10:05:47;;;;;;;1999.90;999.90;;;;;;;-5.07;84.30;101853.13;1759503;80;21202;-72
2020/12/23 10:08:15;;;;;;;1999.90;999.90;;;;;;;-4.98;84.42;101852.59;1764802;80;21137;-66
2020/12/23 10:10:43;;;;;;;1999.90;999.90;;;;;;;-4.97;84.06;101853.77;1763457;80;21386;-67
2020/12/23 10:13:11;;;;;;;1999.90;999.90;;;;;;;-4.95;84.15;101843.63;1759974;80;21170;-68
2020/12/23 10:15:39;;;;;;;1999.90;999.90;;;;;;;-4.94;83.80;101836.37;1757443;80;21517;-67
2020/12/23 10:18:06;;;;;;;1999.90;999.90;;;;;;;-4.96;83.71;101833.00;1764459;80;21182;-66
2020/12/23 10:20:35;;;;;;;1999.90;999.90;;;;;;;-5.00;83.95;101828.46;1770082;80;20978;-68
2020/12/23 10:23:02;;;;;;;1999.90;999.90;;;;;;;-5.05;83.70;101826.80;1766785;80;21200;-68
2020/12/23 10:25:33;;;;;;;1999.90;999.90;;;;;;;-5.07;84.14;101822.59;1763004;80;21155;-68
2020/12/23 10:28:00;;;;;;;1999.90;999.90;;;;;;;-5.10;83.75;101823.78;1764843;80;21527;-67
2020/12/23 10:30:28;;;;;;;1999.90;999.90;;;;;;;-5.12;84.15;101824.47;1763158;80;21125;-67
2020/12/23 10:32:57;;;;;;;1999.90;999.90;;;;;;;-5.06;84.62;101815.66;1761539;80;21530;-69
2020/12/23 10:35:25;;;;;;;1999.90;999.90;;;;;;;-4.95;84.76;101818.48;1763512;80;21212;-68
2020/12/23 10:37:52;;;;;;;1999.90;999.90;;;;;;;-4.90;84.07;101813.39;1762976;80;21289;-66
2020/12/23 10:40:20;;;;;;;1999.90;999.90;;;;;;;-4.93;84.07;101815.94;1768820;80;21022;-66
2020/12/23 10:42:48;;;;;;;1999.90;999.90;;;;;;;-4.97;83.79;101817.81;1762302;80;21025;-66
2020/12/23 10:45:16;;;;;;;1999.90;999.90;;;;;;;-4.97;84.13;101810.56;1758591;80;21672;-66
2020/12/23 10:47:44;;;;;;;1999.90;999.90;;;;;;;-4.88;84.46;101811.36;1766648;80;21349;-66
2020/12/23 10:50:11;;;;;;;1999.90;999.90;;;;;;;-4.78;84.32;101814.68;1761545;80;21158;-68
2020/12/23 10:52:39;;;;;;;1999.90;999.90;;;;;;;-4.70;84.34;101801.12;1763135;80;21237;-68
2020/12/23 10:55:07;;;;;;;1999.90;999.90;;;;;;;-4.62;84.19;101802.94;1761924;80;21609;-66
2020/12/23 10:57:35;;;;;;;1999.90;999.90;;;;;;;-4.59;83.79;101803.93;1762303;80;21119;-66
2020/12/23 11:00:06;;;;;;;1999.90;999.90;;;;;;;-4.64;83.75;101802.27;1764817;80;20986;-67
2020/12/23 11:02:42;;;;;;;1999.90;999.90;;;;;;;-4.63;83.96;101799.91;1874550;75;28676;-68
2020/12/23 11:05:10;;;;;;;1999.90;999.90;;;;;;;-4.71;83.93;101805.36;1850605;75;21653;-66
2020/12/23 11:07:37;;;;;;;1999.90;999.90;;;;;;;-4.81;83.76;101799.34;1784262;79;21364;-68
2020/12/23 11:10:07;;;;;;;1999.90;999.90;;;;;;;-4.90;83.83;101803.44;1777984;79;20965;-66
2020/12/23 11:12:35;;;;;;;1999.90;999.90;;;;;;;-4.96;84.42;101801.44;1786402;79;21044;-66
2020/12/23 11:15:03;;;;;;;1999.90;999.90;;;;;;;-4.94;84.65;101792.66;1777296;79;21086;-70
2020/12/23 11:17:31;;;;;;;1999.90;999.90;;;;;;;-4.90;84.86;101799.89;1777082;79;21730;-68